sensor_id;sensor_type;location;lat;lon;timestamp;pressure;altitude;pressure_sealevel;temperature
53667;BMP280;39568;51.026;5.468;2023-04-19T00:01:15;101671.13;;;8.75
53667;BMP280;39568;51.026;5.468;2023-04-19T00:03:43;101668.47;;;8.84
53667;BMP280;39568;51.026;5.468;2023-04-19T00:06:10;101671.94;;;8.99
53667;BMP280;39568;51.026;5.468;2023-04-19T00:08:41;101669.00;;;9.06
53667;BMP280;39568;51.026;5.468;2023-04-19T00:11:15;101666.22;;;9.01
53667;BMP280;39568;51.026;5.468;2023-04-19T00:13:42;101666.63;;;9.08
53667;BMP280;39568;51.026;5.468;2023-04-19T00:16:09;101667.50;;;9.14
53667;BMP280;39568;51.026;5.468;2023-04-19T00:18:35;101675.88;;;9.13
53667;BMP280;39568;51.026;5.468;2023-04-19T00:21:05;101663.75;;;9.21
53667;BMP280;39568;51.026;5.468;2023-04-19T00:23:31;101663.84;;;9.35
53667;BMP280;39568;51.026;5.468;2023-04-19T00:25:58;101665.03;;;9.34
53667;BMP280;39568;51.026;5.468;2023-04-19T00:28:27;101665.94;;;9.31
53667;BMP280;39568;51.026;5.468;2023-04-19T00:30:55;101666.38;;;9.30
53667;BMP280;39568;51.026;5.468;2023-04-19T00:33:23;101667.09;;;9.39
53667;BMP280;39568;51.026;5.468;2023-04-19T00:35:50;101668.06;;;9.51
53667;BMP280;39568;51.026;5.468;2023-04-19T00:38:18;101665.09;;;9.49
53667;BMP280;39568;51.026;5.468;2023-04-19T00:40:44;101673.59;;;9.62
53667;BMP280;39568;51.026;5.468;2023-04-19T00:43:16;101670.34;;;9.67
53667;BMP280;39568;51.026;5.468;2023-04-19T00:45:43;101662.28;;;9.76
53667;BMP280;39568;51.026;5.468;2023-04-19T00:48:10;101671.50;;;9.90
53667;BMP280;39568;51.026;5.468;2023-04-19T00:50:38;101665.53;;;9.95
53667;BMP280;39568;51.026;5.468;2023-04-19T00:53:07;101663.44;;;9.99
53667;BMP280;39568;51.026;5.468;2023-04-19T00:55:37;101664.03;;;10.17
53667;BMP280;39568;51.026;5.468;2023-04-19T00:58:04;101666.53;;;10.21
53667;BMP280;39568;51.026;5.468;2023-04-19T01:00:33;101665.06;;;10.20
53667;BMP280;39568;51.026;5.468;2023-04-19T01:03:00;101663.22;;;10.26
53667;BMP280;39568;51.026;5.468;2023-04-19T01:05:26;101654.53;;;10.26
53667;BMP280;39568;51.026;5.468;2023-04-19T01:07:53;101658.34;;;10.39
53667;BMP280;39568;51.026;5.468;2023-04-19T01:10:20;101658.34;;;10.39
53667;BMP280;39568;51.026;5.468;2023-04-19T01:12:48;101656.88;;;10.38
53667;BMP280;39568;51.026;5.468;2023-04-19T01:15:16;101656.34;;;10.34
53667;BMP280;39568;51.026;5.468;2023-04-19T01:17:43;101656.16;;;10.38
53667;BMP280;39568;51.026;5.468;2023-04-19T01:20:11;101655.69;;;10.39
53667;BMP280;39568;51.026;5.468;2023-04-19T01:22:39;101651.69;;;10.44
53667;BMP280;39568;51.026;5.468;2023-04-19T01:25:07;101643.50;;;10.47
53667;BMP280;39568;51.026;5.468;2023-04-19T01:27:34;101658.56;;;10.50
53667;BMP280;39568;51.026;5.468;2023-04-19T01:30:02;101648.56;;;10.60
53667;BMP280;39568;51.026;5.468;2023-04-19T01:32:30;101638.94;;;10.62
53667;BMP280;39568;51.026;5.468;2023-04-19T01:34:57;101642.59;;;10.65
53667;BMP280;39568;51.026;5.468;2023-04-19T01:37:24;101646.78;;;10.71
53667;BMP280;39568;51.026;5.468;2023-04-19T01:39:58;101644.50;;;10.64
53667;BMP280;39568;51.026;5.468;2023-04-19T01:42:27;101648.53;;;10.74
53667;BMP280;39568;51.026;5.468;2023-04-19T01:44:53;101638.19;;;10.62
53667;BMP280;39568;51.026;5.468;2023-04-19T01:47:20;101642.13;;;10.66
53667;BMP280;39568;51.026;5.468;2023-04-19T01:49:47;101638.91;;;10.77
53667;BMP280;39568;51.026;5.468;2023-04-19T01:52:16;101637.72;;;10.63
53667;BMP280;39568;51.026;5.468;2023-04-19T01:54:45;101647.19;;;10.64
53667;BMP280;39568;51.026;5.468;2023-04-19T01:57:13;101645.88;;;10.74
53667;BMP280;39568;51.026;5.468;2023-04-19T01:59:41;101641.00;;;10.73
53667;BMP280;39568;51.026;5.468;2023-04-19T02:02:07;101639.63;;;10.77
53667;BMP280;39568;51.026;5.468;2023-04-19T02:04:34;101638.19;;;10.76
53667;BMP280;39568;51.026;5.468;2023-04-19T02:07:06;101632.66;;;10.80
53667;BMP280;39568;51.026;5.468;2023-04-19T02:09:34;101638.97;;;10.82
53667;BMP280;39568;51.026;5.468;2023-04-19T02:12:01;101632.66;;;10.80
53667;BMP280;39568;51.026;5.468;2023-04-19T02:14:30;101624.19;;;10.81
53667;BMP280;39568;51.026;5.468;2023-04-19T02:16:56;101624.88;;;10.76
53667;BMP280;39568;51.026;5.468;2023-04-19T02:19:25;101625.84;;;10.79
53667;BMP280;39568;51.026;5.468;2023-04-19T02:21:57;101631.25;;;10.85
53667;BMP280;39568;51.026;5.468;2023-04-19T02:24:23;101619.44;;;10.86
53667;BMP280;39568;51.026;5.468;2023-04-19T02:26:54;101620.16;;;10.86
53667;BMP280;39568;51.026;5.468;2023-04-19T02:29:21;101625.28;;;10.90
53667;BMP280;39568;51.026;5.468;2023-04-19T02:31:50;101626.75;;;10.91
53667;BMP280;39568;51.026;5.468;2023-04-19T02:34:17;101630.06;;;10.86
53667;BMP280;39568;51.026;5.468;2023-04-19T02:36:44;101625.56;;;10.92
53667;BMP280;39568;51.026;5.468;2023-04-19T02:39:12;101621.81;;;10.84
53667;BMP280;39568;51.026;5.468;2023-04-19T02:41:42;101632.25;;;10.87
53667;BMP280;39568;51.026;5.468;2023-04-19T02:44:11;101627.03;;;10.93
53667;BMP280;39568;51.026;5.468;2023-04-19T02:46:54;101629.81;;;10.84
53667;BMP280;39568;51.026;5.468;2023-04-19T02:49:29;101621.34;;;10.85
53667;BMP280;39568;51.026;5.468;2023-04-19T02:52:09;101625.34;;;10.60
53667;BMP280;39568;51.026;5.468;2023-04-19T02:54:42;101623.16;;;10.44
53667;BMP280;39568;51.026;5.468;2023-04-19T02:57:13;101627.81;;;10.35
53667;BMP280;39568;51.026;5.468;2023-04-19T02:59:54;101624.31;;;10.14
53667;BMP280;39568;51.026;5.468;2023-04-19T03:02:33;101627.13;;;9.96
53667;BMP280;39568;51.026;5.468;2023-04-19T03:05:08;101628.19;;;9.75
53667;BMP280;39568;51.026;5.468;2023-04-19T03:07:52;101623.84;;;9.63
53667;BMP280;39568;51.026;5.468;2023-04-19T03:10:27;101615.38;;;9.49
53667;BMP280;39568;51.026;5.468;2023-04-19T03:13:00;101625.84;;;9.44
53667;BMP280;39568;51.026;5.468;2023-04-19T03:15:33;101624.63;;;9.30
53667;BMP280;39568;51.026;5.468;2023-04-19T03:18:17;101618.22;;;9.13
53667;BMP280;39568;51.026;5.468;2023-04-19T03:20:52;101618.09;;;9.08
53667;BMP280;39568;51.026;5.468;2023-04-19T03:23:33;101601.94;;;8.96
53667;BMP280;39568;51.026;5.468;2023-04-19T03:26:13;101608.72;;;8.88
53667;BMP280;39568;51.026;5.468;2023-04-19T03:28:55;101603.88;;;8.87
53667;BMP280;39568;51.026;5.468;2023-04-19T03:31:35;101608.44;;;8.86
53667;BMP280;39568;51.026;5.468;2023-04-19T03:34:13;101595.91;;;8.78
53667;BMP280;39568;51.026;5.468;2023-04-19T03:36:48;101611.16;;;8.68
53667;BMP280;39568;51.026;5.468;2023-04-19T03:39:31;101608.22;;;8.66
53667;BMP280;39568;51.026;5.468;2023-04-19T03:42:11;101601.72;;;8.58
53667;BMP280;39568;51.026;5.468;2023-04-19T03:44:48;101602.78;;;8.52
53667;BMP280;39568;51.026;5.468;2023-04-19T03:47:25;101604.88;;;8.57
53667;BMP280;39568;51.026;5.468;2023-04-19T03:50:04;101598.06;;;8.56
53667;BMP280;39568;51.026;5.468;2023-04-19T03:52:43;101604.13;;;8.56
53667;BMP280;39568;51.026;5.468;2023-04-19T03:55:24;101601.03;;;8.49
53667;BMP280;39568;51.026;5.468;2023-04-19T03:58:00;101609.25;;;8.51
53667;BMP280;39568;51.026;5.468;2023-04-19T04:00:42;101602.94;;;8.57
53667;BMP280;39568;51.026;5.468;2023-04-19T04:03:21;101604.53;;;8.73
53667;BMP280;39568;51.026;5.468;2023-04-19T04:06:02;101606.34;;;8.90
53667;BMP280;39568;51.026;5.468;2023-04-19T04:08:38;101601.88;;;9.06
53667;BMP280;39568;51.026;5.468;2023-04-19T04:11:16;101603.56;;;9.18
53667;BMP280;39568;51.026;5.468;2023-04-19T04:13:54;101607.78;;;9.33
53667;BMP280;39568;51.026;5.468;2023-04-19T04:16:31;101608.00;;;9.44
53667;BMP280;39568;51.026;5.468;2023-04-19T04:19:10;101613.84;;;9.57
53667;BMP280;39568;51.026;5.468;2023-04-19T04:21:53;101613.31;;;9.68
53667;BMP280;39568;51.026;5.468;2023-04-19T04:24:31;101606.09;;;9.83
53667;BMP280;39568;51.026;5.468;2023-04-19T04:27:14;101613.00;;;9.90
53667;BMP280;39568;51.026;5.468;2023-04-19T04:29:53;101616.50;;;9.96
53667;BMP280;39568;51.026;5.468;2023-04-19T04:32:31;101615.03;;;9.95
53667;BMP280;39568;51.026;5.468;2023-04-19T04:35:14;101610.34;;;9.90
53667;BMP280;39568;51.026;5.468;2023-04-19T04:37:57;101620.72;;;10.02
53667;BMP280;39568;51.026;5.468;2023-04-19T04:40:33;101622.13;;;10.12
53667;BMP280;39568;51.026;5.468;2023-04-19T04:43:12;101618.38;;;10.19
53667;BMP280;39568;51.026;5.468;2023-04-19T04:45:50;101623.84;;;10.30
53667;BMP280;39568;51.026;5.468;2023-04-19T04:48:28;101629.84;;;10.25
53667;BMP280;39568;51.026;5.468;2023-04-19T04:51:06;101635.34;;;10.36
53667;BMP280;39568;51.026;5.468;2023-04-19T04:53:48;101629.75;;;10.34
53667;BMP280;39568;51.026;5.468;2023-04-19T04:56:30;101628.28;;;10.48
53667;BMP280;39568;51.026;5.468;2023-04-19T04:59:08;101629.97;;;10.45
53667;BMP280;39568;51.026;5.468;2023-04-19T05:01:46;101633.41;;;10.51
53667;BMP280;39568;51.026;5.468;2023-04-19T05:04:24;101628.09;;;10.51
53667;BMP280;39568;51.026;5.468;2023-04-19T05:07:02;101630.94;;;10.48
53667;BMP280;39568;51.026;5.468;2023-04-19T05:09:44;101628.63;;;10.55
53667;BMP280;39568;51.026;5.468;2023-04-19T05:12:21;101636.34;;;10.53
53667;BMP280;39568;51.026;5.468;2023-04-19T05:14:53;101626.31;;;10.63
53667;BMP280;39568;51.026;5.468;2023-04-19T05:17:27;101628.38;;;10.53
53667;BMP280;39568;51.026;5.468;2023-04-19T05:19:54;101623.50;;;10.66
53667;BMP280;39568;51.026;5.468;2023-04-19T05:22:20;101631.03;;;10.68
53667;BMP280;39568;51.026;5.468;2023-04-19T05:24:48;101627.53;;;10.76
53667;BMP280;39568;51.026;5.468;2023-04-19T05:27:15;101625.16;;;10.78
53667;BMP280;39568;51.026;5.468;2023-04-19T05:29:42;101629.72;;;10.78
53667;BMP280;39568;51.026;5.468;2023-04-19T05:32:08;101632.13;;;10.76
53667;BMP280;39568;51.026;5.468;2023-04-19T05:34:35;101626.03;;;10.90
53667;BMP280;39568;51.026;5.468;2023-04-19T05:37:04;101631.25;;;10.99
53667;BMP280;39568;51.026;5.468;2023-04-19T05:39:31;101631.88;;;10.94
53667;BMP280;39568;51.026;5.468;2023-04-19T05:41:59;101628.34;;;10.82
53667;BMP280;39568;51.026;5.468;2023-04-19T05:44:26;101631.72;;;10.83
53667;BMP280;39568;51.026;5.468;2023-04-19T05:46:52;101629.31;;;11.00
53667;BMP280;39568;51.026;5.468;2023-04-19T05:49:19;101631.13;;;11.08
53667;BMP280;39568;51.026;5.468;2023-04-19T05:51:46;101633.19;;;11.19
53667;BMP280;39568;51.026;5.468;2023-04-19T05:54:12;101627.72;;;11.28
53667;BMP280;39568;51.026;5.468;2023-04-19T05:56:39;101633.88;;;11.34
53667;BMP280;39568;51.026;5.468;2023-04-19T05:59:07;101619.72;;;11.48
53667;BMP280;39568;51.026;5.468;2023-04-19T06:01:35;101618.28;;;11.47
53667;BMP280;39568;51.026;5.468;2023-04-19T06:04:02;101625.41;;;11.56
53667;BMP280;39568;51.026;5.468;2023-04-19T06:06:30;101623.59;;;11.67
53667;BMP280;39568;51.026;5.468;2023-04-19T06:08:56;101615.72;;;11.78
53667;BMP280;39568;51.026;5.468;2023-04-19T06:11:23;101623.06;;;11.83
53667;BMP280;39568;51.026;5.468;2023-04-19T06:13:50;101619.88;;;12.05
53667;BMP280;39568;51.026;5.468;2023-04-19T06:16:18;101613.94;;;12.21
53667;BMP280;39568;51.026;5.468;2023-04-19T06:18:45;101625.16;;;12.31
53667;BMP280;39568;51.026;5.468;2023-04-19T06:21:11;101617.34;;;12.53
53667;BMP280;39568;51.026;5.468;2023-04-19T06:23:38;101621.88;;;12.78
53667;BMP280;39568;51.026;5.468;2023-04-19T06:26:05;101612.94;;;12.87
53667;BMP280;39568;51.026;5.468;2023-04-19T06:28:31;101616.97;;;12.77
53667;BMP280;39568;51.026;5.468;2023-04-19T06:30:58;101613.06;;;12.66
53667;BMP280;39568;51.026;5.468;2023-04-19T06:33:26;101616.97;;;12.71
53667;BMP280;39568;51.026;5.468;2023-04-19T06:35:53;101620.38;;;12.77
53667;BMP280;39568;51.026;5.468;2023-04-19T06:38:19;101623.34;;;12.85
53667;BMP280;39568;51.026;5.468;2023-04-19T06:40:46;101631.13;;;12.88
53667;BMP280;39568;51.026;5.468;2023-04-19T06:43:13;101622.16;;;12.86
53667;BMP280;39568;51.026;5.468;2023-04-19T06:45:40;101624.84;;;12.91
53667;BMP280;39568;51.026;5.468;2023-04-19T06:48:06;101629.72;;;12.87
53667;BMP280;39568;51.026;5.468;2023-04-19T06:50:34;101627.03;;;12.93
53667;BMP280;39568;51.026;5.468;2023-04-19T06:53:01;101626.97;;;12.82
53667;BMP280;39568;51.026;5.468;2023-04-19T06:55:28;101629.94;;;12.89
53667;BMP280;39568;51.026;5.468;2023-04-19T06:57:55;101640.59;;;12.84
53667;BMP280;39568;51.026;5.468;2023-04-19T07:00:22;101622.25;;;12.60
53667;BMP280;39568;51.026;5.468;2023-04-19T07:02:48;101632.81;;;12.49
53667;BMP280;39568;51.026;5.468;2023-04-19T07:05:16;101638.59;;;12.42
53667;BMP280;39568;51.026;5.468;2023-04-19T07:07:45;101623.91;;;12.57
53667;BMP280;39568;51.026;5.468;2023-04-19T07:10:11;101636.34;;;12.66
53667;BMP280;39568;51.026;5.468;2023-04-19T07:12:38;101633.25;;;12.73
53667;BMP280;39568;51.026;5.468;2023-04-19T07:15:05;101627.47;;;12.80
53667;BMP280;39568;51.026;5.468;2023-04-19T07:17:33;101636.06;;;13.01
53667;BMP280;39568;51.026;5.468;2023-04-19T07:20:00;101639.00;;;13.03
53667;BMP280;39568;51.026;5.468;2023-04-19T07:22:27;101637.16;;;13.31
53667;BMP280;39568;51.026;5.468;2023-04-19T07:24:55;101643.78;;;13.47
53667;BMP280;39568;51.026;5.468;2023-04-19T07:27:22;101633.41;;;13.71
53667;BMP280;39568;51.026;5.468;2023-04-19T07:29:49;101638.06;;;13.81
53667;BMP280;39568;51.026;5.468;2023-04-19T07:32:16;101629.75;;;13.90
53667;BMP280;39568;51.026;5.468;2023-04-19T07:34:42;101622.00;;;14.03
53667;BMP280;39568;51.026;5.468;2023-04-19T07:37:10;101630.50;;;14.02
53667;BMP280;39568;51.026;5.468;2023-04-19T07:39:37;101625.16;;;14.02
53667;BMP280;39568;51.026;5.468;2023-04-19T07:42:05;101625.16;;;14.02
53667;BMP280;39568;51.026;5.468;2023-04-19T07:44:32;101630.28;;;14.11
53667;BMP280;39568;51.026;5.468;2023-04-19T07:46:58;101633.69;;;14.23
53667;BMP280;39568;51.026;5.468;2023-04-19T07:49:25;101629.28;;;14.14
53667;BMP280;39568;51.026;5.468;2023-04-19T07:51:51;101625.91;;;14.14
53667;BMP280;39568;51.026;5.468;2023-04-19T07:54:18;101631.25;;;14.25
53667;BMP280;39568;51.026;5.468;2023-04-19T07:56:45;101628.34;;;14.23
53667;BMP280;39568;51.026;5.468;2023-04-19T07:59:13;101627.09;;;14.29
53667;BMP280;39568;51.026;5.468;2023-04-19T08:01:40;101622.72;;;14.26
53667;BMP280;39568;51.026;5.468;2023-04-19T08:04:07;101622.97;;;14.06
53667;BMP280;39568;51.026;5.468;2023-04-19T08:06:34;101621.25;;;14.14
53667;BMP280;39568;51.026;5.468;2023-04-19T08:09:02;101620.53;;;14.25
53667;BMP280;39568;51.026;5.468;2023-04-19T08:11:29;101621.50;;;14.22
53667;BMP280;39568;51.026;5.468;2023-04-19T08:13:55;101623.19;;;14.41
53667;BMP280;39568;51.026;5.468;2023-04-19T08:16:23;101619.06;;;14.51
53667;BMP280;39568;51.026;5.468;2023-04-19T08:18:52;101625.81;;;14.69
53667;BMP280;39568;51.026;5.468;2023-04-19T08:21:19;101629.19;;;14.86
53667;BMP280;39568;51.026;5.468;2023-04-19T08:23:45;101630.88;;;14.95
53667;BMP280;39568;51.026;5.468;2023-04-19T08:26:12;101623.03;;;14.97
53667;BMP280;39568;51.026;5.468;2023-04-19T08:28:38;101625.47;;;15.06
53667;BMP280;39568;51.026;5.468;2023-04-19T08:31:05;101613.22;;;15.16
53667;BMP280;39568;51.026;5.468;2023-04-19T08:33:34;101614.91;;;15.19
53667;BMP280;39568;51.026;5.468;2023-04-19T08:36:00;101624.41;;;15.20
53667;BMP280;39568;51.026;5.468;2023-04-19T08:38:27;101616.09;;;15.29
53667;BMP280;39568;51.026;5.468;2023-04-19T08:40:54;101608.25;;;15.31
53667;BMP280;39568;51.026;5.468;2023-04-19T08:43:21;101614.00;;;15.52
53667;BMP280;39568;51.026;5.468;2023-04-19T08:45:50;101612.97;;;15.60
53667;BMP280;39568;51.026;5.468;2023-04-19T08:48:17;101615.56;;;15.71
53667;BMP280;39568;51.026;5.468;2023-04-19T08:50:45;101610.09;;;15.88
53667;BMP280;39568;51.026;5.468;2023-04-19T08:53:13;101609.66;;;16.08
53667;BMP280;39568;51.026;5.468;2023-04-19T08:55:42;101608.56;;;16.46
53667;BMP280;39568;51.026;5.468;2023-04-19T08:58:08;101603.53;;;16.56
53667;BMP280;39568;51.026;5.468;2023-04-19T09:00:37;101607.56;;;16.68
53667;BMP280;39568;51.026;5.468;2023-04-19T09:03:06;101598.84;;;17.36
53667;BMP280;39568;51.026;5.468;2023-04-19T09:05:33;101600.00;;;17.54
53667;BMP280;39568;51.026;5.468;2023-04-19T09:08:20;101597.50;;;18.40
53667;BMP280;39568;51.026;5.468;2023-04-19T09:10:51;101599.88;;;18.90
53667;BMP280;39568;51.026;5.468;2023-04-19T09:13:19;101588.41;;;18.17
53667;BMP280;39568;51.026;5.468;2023-04-19T09:15:45;101595.03;;;19.09
53667;BMP280;39568;51.026;5.468;2023-04-19T09:18:12;101589.53;;;19.15
53667;BMP280;39568;51.026;5.468;2023-04-19T09:20:41;101591.72;;;21.10
53667;BMP280;39568;51.026;5.468;2023-04-19T09:23:09;101590.94;;;20.64
53667;BMP280;39568;51.026;5.468;2023-04-19T09:25:38;101581.75;;;20.82
53667;BMP280;39568;51.026;5.468;2023-04-19T09:28:08;101581.94;;;20.84
53667;BMP280;39568;51.026;5.468;2023-04-19T09:30:35;101583.09;;;22.04
53667;BMP280;39568;51.026;5.468;2023-04-19T09:33:02;101586.88;;;22.01
53667;BMP280;39568;51.026;5.468;2023-04-19T09:35:39;101586.66;;;21.44
53667;BMP280;39568;51.026;5.468;2023-04-19T09:38:06;101583.28;;;21.91
53667;BMP280;39568;51.026;5.468;2023-04-19T09:40:33;101583.75;;;21.65
53667;BMP280;39568;51.026;5.468;2023-04-19T09:43:02;101577.78;;;22.14
53667;BMP280;39568;51.026;5.468;2023-04-19T09:45:38;101580.88;;;22.10
53667;BMP280;39568;51.026;5.468;2023-04-19T09:48:06;101583.44;;;23.65
53667;BMP280;39568;51.026;5.468;2023-04-19T09:50:33;101572.03;;;22.99
53667;BMP280;39568;51.026;5.468;2023-04-19T09:53:01;101569.25;;;23.23
53667;BMP280;39568;51.026;5.468;2023-04-19T09:55:28;101574.91;;;23.18
53667;BMP280;39568;51.026;5.468;2023-04-19T09:57:56;101575.66;;;25.05
53667;BMP280;39568;51.026;5.468;2023-04-19T10:00:24;101559.84;;;25.79
53667;BMP280;39568;51.026;5.468;2023-04-19T10:02:51;101566.44;;;24.81
53667;BMP280;39568;51.026;5.468;2023-04-19T10:05:22;101571.47;;;23.86
53667;BMP280;39568;51.026;5.468;2023-04-19T10:07:49;101567.38;;;23.77
53667;BMP280;39568;51.026;5.468;2023-04-19T10:10:17;101580.50;;;23.71
53667;BMP280;39568;51.026;5.468;2023-04-19T10:12:47;101554.31;;;23.49
53667;BMP280;39568;51.026;5.468;2023-04-19T10:15:13;101550.56;;;23.27
53667;BMP280;39568;51.026;5.468;2023-04-19T10:17:42;101556.72;;;24.42
53667;BMP280;39568;51.026;5.468;2023-04-19T10:20:13;101556.97;;;24.92
53667;BMP280;39568;51.026;5.468;2023-04-19T10:22:42;101565.03;;;25.09
53667;BMP280;39568;51.026;5.468;2023-04-19T10:25:11;101555.97;;;25.73
53667;BMP280;39568;51.026;5.468;2023-04-19T10:27:38;101553.00;;;26.09
53667;BMP280;39568;51.026;5.468;2023-04-19T10:30:06;101555.59;;;25.98
53667;BMP280;39568;51.026;5.468;2023-04-19T10:32:44;101550.06;;;25.86
53667;BMP280;39568;51.026;5.468;2023-04-19T10:35:17;101545.25;;;26.36
53667;BMP280;39568;51.026;5.468;2023-04-19T10:38:02;101536.31;;;27.76
53667;BMP280;39568;51.026;5.468;2023-04-19T10:40:56;101546.78;;;28.62
53667;BMP280;39568;51.026;5.468;2023-04-19T10:43:25;101543.19;;;28.71
53667;BMP280;39568;51.026;5.468;2023-04-19T10:45:52;101531.94;;;28.54
53667;BMP280;39568;51.026;5.468;2023-04-19T10:48:40;101540.41;;;27.10
53667;BMP280;39568;51.026;5.468;2023-04-19T10:51:18;101540.50;;;27.33
53667;BMP280;39568;51.026;5.468;2023-04-19T10:53:50;101541.03;;;27.64
53667;BMP280;39568;51.026;5.468;2023-04-19T10:56:18;101536.16;;;27.51
53667;BMP280;39568;51.026;5.468;2023-04-19T10:59:10;101540.16;;;28.54
53667;BMP280;39568;51.026;5.468;2023-04-19T11:01:38;101548.66;;;28.35
53667;BMP280;39568;51.026;5.468;2023-04-19T11:04:09;101537.44;;;28.42
53667;BMP280;39568;51.026;5.468;2023-04-19T11:06:37;101535.81;;;28.14
53667;BMP280;39568;51.026;5.468;2023-04-19T11:09:04;101531.78;;;27.69
53667;BMP280;39568;51.026;5.468;2023-04-19T11:11:35;101528.53;;;28.78
53667;BMP280;39568;51.026;5.468;2023-04-19T11:14:02;101532.53;;;29.14
53667;BMP280;39568;51.026;5.468;2023-04-19T11:16:29;101525.34;;;30.29
53667;BMP280;39568;51.026;5.468;2023-04-19T11:18:56;101516.66;;;28.02
53667;BMP280;39568;51.026;5.468;2023-04-19T11:21:24;101514.94;;;27.28
53667;BMP280;39568;51.026;5.468;2023-04-19T11:24:05;101510.91;;;23.58
53667;BMP280;39568;51.026;5.468;2023-04-19T11:26:32;101521.91;;;24.40
53667;BMP280;39568;51.026;5.468;2023-04-19T11:28:59;101504.38;;;25.37
53667;BMP280;39568;51.026;5.468;2023-04-19T11:31:26;101508.53;;;24.61
53667;BMP280;39568;51.026;5.468;2023-04-19T11:33:53;101501.34;;;26.74
53667;BMP280;39568;51.026;5.468;2023-04-19T11:36:19;101498.13;;;28.12
53667;BMP280;39568;51.026;5.468;2023-04-19T11:38:48;101500.66;;;27.85
53667;BMP280;39568;51.026;5.468;2023-04-19T11:41:14;101496.78;;;27.44
53667;BMP280;39568;51.026;5.468;2023-04-19T11:43:41;101493.03;;;27.61
53667;BMP280;39568;51.026;5.468;2023-04-19T11:46:10;101494.13;;;26.58
53667;BMP280;39568;51.026;5.468;2023-04-19T11:48:38;101488.94;;;26.94
53667;BMP280;39568;51.026;5.468;2023-04-19T11:51:05;101481.59;;;25.82
53667;BMP280;39568;51.026;5.468;2023-04-19T11:53:32;101486.31;;;27.41
53667;BMP280;39568;51.026;5.468;2023-04-19T11:56:05;101490.13;;;28.90
53667;BMP280;39568;51.026;5.468;2023-04-19T11:58:36;101497.22;;;28.33
53667;BMP280;39568;51.026;5.468;2023-04-19T12:01:06;101486.44;;;26.24
53667;BMP280;39568;51.026;5.468;2023-04-19T12:03:33;101484.56;;;26.68
53667;BMP280;39568;51.026;5.468;2023-04-19T12:06:01;101488.09;;;28.29
53667;BMP280;39568;51.026;5.468;2023-04-19T12:08:30;101477.72;;;28.89
53667;BMP280;39568;51.026;5.468;2023-04-19T12:10:58;101466.00;;;24.66
53667;BMP280;39568;51.026;5.468;2023-04-19T12:13:26;101478.06;;;25.70
53667;BMP280;39568;51.026;5.468;2023-04-19T12:15:52;101468.47;;;27.28
53667;BMP280;39568;51.026;5.468;2023-04-19T12:18:19;101464.16;;;26.06
53667;BMP280;39568;51.026;5.468;2023-04-19T12:20:47;101473.69;;;24.60
53667;BMP280;39568;51.026;5.468;2023-04-19T12:23:14;101467.50;;;25.55
53667;BMP280;39568;51.026;5.468;2023-04-19T12:25:43;101468.25;;;25.86
53667;BMP280;39568;51.026;5.468;2023-04-19T12:28:11;101462.91;;;26.93
53667;BMP280;39568;51.026;5.468;2023-04-19T12:30:39;101463.31;;;26.67
53667;BMP280;39568;51.026;5.468;2023-04-19T12:33:06;101469.91;;;28.10
53667;BMP280;39568;51.026;5.468;2023-04-19T12:35:34;101455.69;;;26.02
53667;BMP280;39568;51.026;5.468;2023-04-19T12:38:01;101461.13;;;25.12
53667;BMP280;39568;51.026;5.468;2023-04-19T12:40:29;101460.13;;;26.49
53667;BMP280;39568;51.026;5.468;2023-04-19T12:42:55;101466.31;;;25.58
53667;BMP280;39568;51.026;5.468;2023-04-19T12:45:22;101467.78;;;26.62
53667;BMP280;39568;51.026;5.468;2023-04-19T12:47:50;101456.97;;;27.18
53667;BMP280;39568;51.026;5.468;2023-04-19T12:50:17;101462.97;;;26.72
53667;BMP280;39568;51.026;5.468;2023-04-19T12:52:44;101453.88;;;28.04
53667;BMP280;39568;51.026;5.468;2023-04-19T12:55:11;101448.69;;;29.49
53667;BMP280;39568;51.026;5.468;2023-04-19T12:57:37;101458.56;;;29.55
53667;BMP280;39568;51.026;5.468;2023-04-19T13:00:05;101440.44;;;30.93
53667;BMP280;39568;51.026;5.468;2023-04-19T13:02:34;101453.38;;;29.61
53667;BMP280;39568;51.026;5.468;2023-04-19T13:05:02;101446.28;;;30.86
53667;BMP280;39568;51.026;5.468;2023-04-19T13:07:30;101446.50;;;30.76
53667;BMP280;39568;51.026;5.468;2023-04-19T13:09:56;101433.59;;;29.49
53667;BMP280;39568;51.026;5.468;2023-04-19T13:12:23;101440.84;;;30.88
53667;BMP280;39568;51.026;5.468;2023-04-19T13:14:50;101433.38;;;32.22
53667;BMP280;39568;51.026;5.468;2023-04-19T13:17:17;101429.34;;;30.02
53667;BMP280;39568;51.026;5.468;2023-04-19T13:19:43;101418.56;;;28.34
53667;BMP280;39568;51.026;5.468;2023-04-19T13:22:12;101413.13;;;28.72
53667;BMP280;39568;51.026;5.468;2023-04-19T13:24:38;101419.72;;;30.16
53667;BMP280;39568;51.026;5.468;2023-04-19T13:27:05;101426.84;;;30.81
53667;BMP280;39568;51.026;5.468;2023-04-19T13:29:31;101416.88;;;29.58
53667;BMP280;39568;51.026;5.468;2023-04-19T13:31:58;101404.22;;;30.07
53667;BMP280;39568;51.026;5.468;2023-04-19T13:34:25;101411.94;;;27.65
53667;BMP280;39568;51.026;5.468;2023-04-19T13:36:51;101410.47;;;28.99
53667;BMP280;39568;51.026;5.468;2023-04-19T13:39:19;101415.06;;;29.63
53667;BMP280;39568;51.026;5.468;2023-04-19T13:41:46;101406.19;;;29.91
53667;BMP280;39568;51.026;5.468;2023-04-19T13:44:13;101407.50;;;26.58
53667;BMP280;39568;51.026;5.468;2023-04-19T13:46:39;101400.19;;;26.72
53667;BMP280;39568;51.026;5.468;2023-04-19T13:49:06;101386.09;;;28.78
53667;BMP280;39568;51.026;5.468;2023-04-19T13:51:33;101390.78;;;30.13
53667;BMP280;39568;51.026;5.468;2023-04-19T13:53:59;101389.19;;;30.24
53667;BMP280;39568;51.026;5.468;2023-04-19T13:56:27;101393.06;;;30.79
53667;BMP280;39568;51.026;5.468;2023-04-19T13:58:55;101381.63;;;31.16
53667;BMP280;39568;51.026;5.468;2023-04-19T14:01:22;101387.28;;;31.88
53667;BMP280;39568;51.026;5.468;2023-04-19T14:03:48;101381.81;;;32.82
53667;BMP280;39568;51.026;5.468;2023-04-19T14:06:15;101391.44;;;32.24
53667;BMP280;39568;51.026;5.468;2023-04-19T14:08:42;101370.78;;;32.05
53667;BMP280;39568;51.026;5.468;2023-04-19T14:11:08;101382.81;;;31.79
53667;BMP280;39568;51.026;5.468;2023-04-19T14:13:37;101375.59;;;32.05